Time;durP1;ratioP1;P1;durP2;ratioP2;P2;SDS_P1;SDS_P2;PMS_P1;PMS_P2;Temp;Humidity;BMP_temperature;BMP_pressure;BME280_temperature;BME280_humidity;BME280_pressure;Samples;Min_cycle;Max_cycle;Signal;HPM_P1;HPM_P2
2021/12/09 00:00:58;689762.00;2.30;1189.49;0.00;0.00;0.62;;;;;10.00;1.00;;;;;;2250326;61;1381;-87
2021/12/09 00:03:27;649071.00;2.16;1119.03;0.00;0.00;0.62;;;;;9.70;1.00;;;;;;2250923;61;1158;-86
2021/12/09 00:05:57;686810.00;2.29;1184.37;0.00;0.00;0.62;;;;;9.90;1.00;;;;;;2252096;61;2026;-87
2021/12/09 00:08:25;119745776.00;399.15;69555656.00;0.00;0.00;0.62;;;;;10.40;1.00;;;;;;2263014;61;1111;-87
2021/12/09 00:10:53;684809.00;2.28;1180.91;0.00;0.00;0.62;;;;;10.60;1.00;;;;;;2262605;61;1278;-87
2021/12/09 00:13:21;441186.00;1.47;760.62;0.00;0.00;0.62;;;;;10.50;1.00;;;;;;2262242;61;1105;-87
2021/12/09 00:15:49;752076.00;2.51;1297.67;57900.00;0.19;100.85;;;;;10.70;1.00;;;;;;2262219;61;1173;-87
2021/12/09 00:18:15;610245.00;2.03;1051.91;0.00;0.00;0.62;;;;;11.00;1.00;;;;;;2262140;61;1204;-87
2021/12/09 00:20:43;569853.00;1.90;982.19;0.00;0.00;0.62;;;;;10.80;1.00;;;;;;2257965;61;1347;-87
2021/12/09 00:23:11;672166.00;2.24;1159.00;0.00;0.00;0.62;;;;;10.80;1.00;;;;;;2254705;61;1225;-87
2021/12/09 00:25:39;652655.00;2.18;1125.23;0.00;0.00;0.62;;;;;10.20;1.00;;;;;;2249200;61;1110;-87
2021/12/09 00:28:07;731039.00;2.44;1261.11;0.00;0.00;0.62;;;;;10.20;1.00;;;;;;2249776;61;1950;-87
2021/12/09 00:30:34;645479.00;2.15;1112.82;0.00;0.00;0.62;;;;;10.10;1.00;;;;;;2250310;61;1426;-87
2021/12/09 00:33:04;432442.00;1.44;745.59;0.00;0.00;0.62;;;;;10.00;1.00;;;;;;2250896;61;1216;-87
2021/12/09 00:35:41;480260.00;1.60;827.85;20775.00;0.07;36.61;;;;;10.10;1.00;;;;;;2249457;61;1196;-87
2021/12/09 00:38:09;844859.00;2.82;1459.47;98575.00;0.33;171.11;;;;;10.50;1.00;;;;;;2250055;61;1098;-87
2021/12/09 00:40:38;680426.00;2.27;1173.31;0.00;0.00;0.62;;;;;10.60;1.00;;;;;;2248987;61;1411;-87
2021/12/09 00:43:05;744467.00;2.48;1284.44;47079.00;0.16;82.13;;;;;10.70;1.00;;;;;;2251882;61;1129;-86
2021/12/09 00:45:32;418295.00;1.39;721.26;0.00;0.00;0.62;;;;;10.90;1.00;;;;;;2261845;61;1228;-87
2021/12/09 00:47:59;465369.00;1.55;802.22;0.00;0.00;0.62;;;;;10.90;1.00;;;;;;2262447;61;2019;-87
2021/12/09 00:50:26;576924.00;1.92;994.39;0.00;0.00;0.62;;;;;10.80;1.00;;;;;;2261471;61;1236;-87
2021/12/09 00:52:53;621543.00;2.07;1071.43;0.00;0.00;0.62;;;;;11.10;1.00;;;;;;2247177;61;1098421;-87
2021/12/09 00:55:20;627008.00;2.09;1080.88;0.00;0.00;0.62;;;;;11.10;1.00;;;;;;2262500;61;1125;-86
2021/12/09 00:57:48;634204.00;2.11;1093.32;0.00;0.00;0.62;;;;;11.00;1.00;;;;;;2262135;61;1261;-87
2021/12/09 01:00:20;463788.00;1.55;799.50;0.00;0.00;0.62;;;;;11.10;1.00;;;;;;2262257;61;1119;-87
2021/12/09 01:02:48;748172.00;2.49;1290.88;94217.00;0.31;163.59;;;;;10.80;1.00;;;;;;2262486;61;1497;-87
2021/12/09 01:05:15;669517.00;2.23;1154.42;66286.00;0.22;115.34;;;;;10.30;1.00;;;;;;2262834;61;1518;-87
2021/12/09 01:07:44;726039.00;2.42;1252.42;101524.00;0.34;176.20;;;;;10.80;1.00;;;;;;2262671;61;1984;-85
2021/12/09 01:10:15;489068.00;1.63;843.00;0.00;0.00;0.62;;;;;10.70;1.00;;;;;;2262750;61;1069;-86
2021/12/09 01:12:42;845644.00;2.82;1460.85;87712.00;0.29;152.36;;;;;10.50;1.00;;;;;;2262830;61;1470;-86
2021/12/09 01:15:13;735296.00;2.45;1268.50;104144.00;0.35;180.72;;;;;9.70;1.00;;;;;;2262987;61;1117;-86
2021/12/09 01:17:41;802661.00;2.68;1385.76;95699.00;0.32;166.15;;;;;9.30;1.00;;;;;;2262584;61;1562;-86
2021/12/09 01:20:11;663732.00;2.21;1144.40;87955.00;0.29;152.78;;;;;9.30;1.00;;;;;;2262777;61;1188;-86
2021/12/09 01:22:42;737879.00;2.46;1272.99;90311.00;0.30;156.84;;;;;9.60;1.00;;;;;;2262652;61;1393;-85
2021/12/09 01:25:11;701528.00;2.34;1209.89;85861.00;0.29;149.16;;;;;9.60;1.00;;;;;;2262869;61;1072;-85
2021/12/09 01:27:40;854716.00;2.85;1476.72;93404.00;0.31;162.19;;;;;9.50;1.00;;;;;;2262519;61;2018;-85
2021/12/09 01:30:14;590955.00;1.97;1018.60;99984.00;0.33;173.54;;;;;9.50;1.00;;;;;;2262552;61;1437;-85
2021/12/09 01:32:48;962238.00;3.21;1665.70;98351.00;0.33;170.73;;;;;9.40;1.00;;;;;;2262957;61;2026;-85
2021/12/09 01:35:15;792238.00;2.64;1367.59;88888.00;0.30;154.39;;;;;9.30;1.00;;;;;;2262807;61;1164;-85
2021/12/09 01:37:44;795105.00;2.65;1372.59;96516.00;0.32;167.56;;;;;9.20;1.00;;;;;;2262789;61;1133;-85
2021/12/09 01:40:11;736954.00;2.46;1271.38;98490.00;0.33;170.97;;;;;9.90;1.00;;;;;;2255492;61;1054;-85
2021/12/09 01:42:38;719087.00;2.40;1240.35;100996.00;0.34;175.29;;;;;9.80;1.00;;;;;;2258369;61;1488;-85
2021/12/09 01:45:06;912027.00;3.04;1577.25;94745.00;0.32;164.50;;;;;9.50;1.00;;;;;;2262518;61;1117;-85
2021/12/09 01:47:35;840268.00;2.80;1451.44;134315.00;0.45;232.77;;;;;9.80;1.00;;;;;;2262133;61;1997;-87
2021/12/09 01:50:02;940952.00;3.14;1628.16;93673.00;0.31;162.65;;;;;10.00;1.00;;;;;;2262253;61;1153;-85
2021/12/09 01:52:29;622229.00;2.07;1072.62;86230.00;0.29;149.80;;;;;9.40;1.00;;;;;;2262107;61;1286;-85
2021/12/09 01:54:55;919652.00;3.07;1590.66;108661.00;0.36;188.52;;;;;9.20;1.00;;;;;;2262561;61;1135;-85
2021/12/09 01:57:23;827428.00;2.76;1429.00;89718.00;0.30;155.82;;;;;9.60;1.00;;;;;;2262118;61;1129;-85
2021/12/09 01:59:50;879342.00;2.93;1519.87;82316.00;0.27;143.04;;;;;10.10;1.00;;;;;;2262055;61;1310;-85
2021/12/09 02:02:17;590999.00;1.97;1018.68;96340.00;0.32;167.25;;;;;9.90;1.00;;;;;;2262067;61;1331;-85
2021/12/09 02:04:46;634190.00;2.11;1093.29;95598.00;0.32;165.97;;;;;9.90;1.00;;;;;;2261978;61;1173;-84
2021/12/09 02:07:13;884627.00;2.95;1529.14;95307.00;0.32;165.47;;;;;9.30;1.00;;;;;;2262299;61;2021;-85
2021/12/09 02:09:40;806593.00;2.69;1392.62;89147.00;0.30;154.83;;;;;9.20;1.00;;;;;;2262125;61;1113;-86
2021/12/09 02:12:08;1027019.00;3.42;1780.38;82700.00;0.28;143.70;;;;;9.20;1.00;;;;;;2262497;61;1350;-86
2021/12/09 02:14:37;923402.00;3.08;1597.26;113474.00;0.38;196.82;;;;;9.40;1.00;;;;;;2262818;61;1093;-85
2021/12/09 02:17:04;783589.00;2.61;1352.52;99179.00;0.33;172.15;;;;;9.40;1.00;;;;;;2262769;61;1207;-85
2021/12/09 02:19:31;765695.00;2.55;1321.36;89424.00;0.30;155.31;;;;;9.50;1.00;;;;;;2263044;61;1068;-85
2021/12/09 02:22:01;750007.00;2.50;1294.07;103607.00;0.35;179.80;;;;;9.70;1.00;;;;;;2262671;61;1265;-86
2021/12/09 02:24:28;648098.00;2.16;1117.35;100020.00;0.33;173.61;;;;;9.50;1.00;;;;;;2262599;61;1051;-85
2021/12/09 02:26:55;610139.00;2.03;1051.73;95909.00;0.32;166.51;;;;;9.50;1.00;;;;;;2263181;61;1923;-85
2021/12/09 02:29:22;729264.00;2.43;1258.02;92948.00;0.31;161.40;;;;;9.50;1.00;;;;;;2263032;61;1157;-85
2021/12/09 02:31:51;805068.00;2.68;1389.96;85553.00;0.29;148.63;;;;;9.50;1.00;;;;;;2263075;61;1357;-85
2021/12/09 02:34:18;896769.00;2.99;1550.45;103259.00;0.34;179.20;;;;;10.10;1.00;;;;;;2263159;61;1115;-85
2021/12/09 02:36:45;742033.00;2.47;1280.21;83148.00;0.28;144.47;;;;;10.60;1.00;;;;;;2263449;61;1152;-86
2021/12/09 02:39:15;732974.00;2.44;1264.47;89976.00;0.30;156.27;;;;;10.60;1.00;;;;;;2263347;61;1350;-85
2021/12/09 02:41:43;587853.00;1.96;1013.25;96209.00;0.32;167.03;;;;;10.50;1.00;;;;;;2263084;61;1503;-85
2021/12/09 02:44:13;703572.00;2.35;1213.43;94433.00;0.31;163.96;;;;;10.60;1.00;;;;;;2263084;61;1056;-86
2021/12/09 02:46:41;691649.00;2.31;1192.76;92998.00;0.31;161.48;;;;;11.00;1.00;;;;;;2262962;61;1943;-85
2021/12/09 02:49:13;677989.00;2.26;1169.09;99846.00;0.33;173.31;;;;;10.60;1.00;;;;;;2263273;61;1089;-85
2021/12/09 02:51:40;897678.00;2.99;1552.04;103766.00;0.35;180.07;;;;;10.70;1.00;;;;;;2263202;61;1449;-85
2021/12/09 02:54:11;807375.00;2.69;1393.99;84607.00;0.28;146.99;;;;;10.70;1.00;;;;;;2266418;61;1084;-86
2021/12/09 02:56:40;772518.00;2.58;1333.24;101260.00;0.34;175.75;;;;;10.80;1.00;;;;;;2267821;61;1117;-86
2021/12/09 02:59:08;744094.00;2.48;1283.79;92812.00;0.31;161.16;;;;;10.80;1.00;;;;;;2268085;61;1139;-85
2021/12/09 03:01:37;659477.00;2.20;1137.04;92671.00;0.31;160.92;;;;;10.70;1.00;;;;;;2266296;61;1385;-86
2021/12/09 03:04:05;780116.00;2.60;1346.47;99097.00;0.33;172.01;;;;;10.70;1.00;;;;;;2263209;61;1125;-86
2021/12/09 03:06:35;941413.00;3.14;1628.97;92442.00;0.31;160.52;;;;;10.60;1.00;;;;;;2267029;61;1182;-86
2021/12/09 03:09:06;898718.00;3.00;1553.87;92062.00;0.31;159.87;;;;;9.90;1.00;;;;;;2264808;61;1936;-85
2021/12/09 03:11:33;932338.00;3.11;1612.99;113594.00;0.38;197.03;;;;;9.80;1.00;;;;;;2263565;61;1447;-86
2021/12/09 03:14:02;951735.00;3.17;1647.17;94014.00;0.31;163.24;;;;;9.80;1.00;;;;;;2263565;61;1159;-85
2021/12/09 03:16:29;627135.00;2.09;1081.10;94264.00;0.31;163.67;;;;;9.70;1.00;;;;;;2263694;61;1189;-86
2021/12/09 03:18:59;564029.00;1.88;972.15;88454.00;0.29;153.64;;;;;10.00;1.00;;;;;;2264115;61;1097;-86
2021/12/09 03:21:28;758027.00;2.53;1308.02;92995.00;0.31;161.48;;;;;10.30;1.00;;;;;;2263585;61;1363;-86
2021/12/09 03:23:57;696687.00;2.32;1201.49;93805.00;0.31;162.88;;;;;10.60;1.00;;;;;;2263604;61;1572;-86
2021/12/09 03:26:29;695569.00;2.32;1199.56;58568.00;0.20;102.00;;;;;10.60;1.00;;;;;;2263991;61;1069;-86
2021/12/09 03:28:57;984161.00;3.28;1704.44;103557.00;0.35;179.71;;;;;10.60;1.00;;;;;;2263175;61;2019;-86
2021/12/09 03:31:26;655865.00;2.19;1130.78;95977.00;0.32;166.63;;;;;10.40;1.00;;;;;;2262632;61;1349;-86
2021/12/09 03:33:53;753307.00;2.51;1299.81;95283.00;0.32;165.43;;;;;10.40;1.00;;;;;;2263226;61;1177;-86
2021/12/09 03:36:20;671466.00;2.24;1157.79;106254.00;0.35;184.37;;;;;10.60;1.00;;;;;;2263103;61;1129;-86
2021/12/09 03:38:47;706234.00;2.35;1218.05;107181.00;0.36;185.97;;;;;10.50;1.00;;;;;;2262761;61;1140;-85
2021/12/09 03:41:14;818685.00;2.73;1413.73;99800.00;0.33;173.23;;;;;10.30;1.00;;;;;;2262744;61;1373;-85
2021/12/09 03:43:41;728733.00;2.43;1257.10;111009.00;0.37;192.57;;;;;10.30;1.00;;;;;;2262616;61;1161;-86
2021/12/09 03:46:08;658515.00;2.20;1135.37;89984.00;0.30;156.28;;;;;10.40;1.00;;;;;;2262662;61;1135;-86
2021/12/09 03:48:37;753331.00;2.51;1299.85;109673.00;0.37;190.27;;;;;10.50;1.00;;;;;;2262819;61;1920;-85
2021/12/09 03:51:04;823096.00;2.74;1421.43;128235.00;0.43;222.29;;;;;10.50;1.00;;;;;;2262255;61;1352;-86
2021/12/09 03:53:31;622757.00;2.08;1073.53;88679.00;0.30;154.03;;;;;10.50;1.00;;;;;;2262501;61;1102;-86
2021/12/09 03:55:58;712801.00;2.38;1229.44;76773.00;0.26;133.46;;;;;10.20;1.00;;;;;;2262395;61;1143;-86
2021/12/09 03:58:25;781649.00;2.61;1349.14;100729.00;0.34;174.83;;;;;10.10;1.00;;;;;;2262635;61;1091;-85
2021/12/09 04:00:53;634585.00;2.12;1093.98;89956.00;0.30;156.23;;;;;10.30;1.00;;;;;;2262796;61;1383;-86
2021/12/09 04:03:20;567913.00;1.89;978.85;83285.00;0.28;144.71;;;;;10.50;1.00;;;;;;2262599;61;1107;-86
2021/12/09 04:05:50;656682.00;2.19;1132.20;97331.00;0.32;168.96;;;;;10.30;1.00;;;;;;2262694;61;1114;-86
2021/12/09 04:08:18;706117.00;2.35;1217.85;67533.00;0.23;117.50;;;;;10.00;1.00;;;;;;2262790;61;2000;-86
2021/12/09 04:10:46;789873.00;2.63;1363.47;95515.00;0.32;165.83;;;;;9.90;1.00;;;;;;2263050;61;1382;-86
2021/12/09 04:13:13;654764.00;2.18;1128.88;93104.00;0.31;161.67;;;;;9.60;1.00;;;;;;2262617;61;1078;-86
2021/12/09 04:15:41;664957.00;2.22;1146.52;97511.00;0.33;169.28;;;;;9.50;1.00;;;;;;2262981;61;1058;-86
2021/12/09 04:18:09;755620.00;2.52;1303.83;93130.00;0.31;161.71;;;;;9.70;1.00;;;;;;2261928;61;1100;-86
2021/12/09 04:20:36;554846.00;1.85;956.31;93247.00;0.31;161.91;;;;;9.70;1.00;;;;;;2262173;61;1360;-85
2021/12/09 04:23:06;807822.00;2.69;1394.77;97265.00;0.32;168.85;;;;;9.90;1.00;;;;;;2262833;61;1681;-86
2021/12/09 04:25:34;683713.00;2.28;1179.01;90518.00;0.30;157.20;;;;;10.00;1.00;;;;;;2262406;61;1628;-86
2021/12/09 04:28:01;679565.00;2.27;1171.82;87328.00;0.29;151.69;;;;;10.30;1.00;;;;;;2262198;61;1926;-86
2021/12/09 04:30:29;514676.00;1.72;887.10;85776.00;0.29;149.01;;;;;10.40;1.00;;;;;;2262366;61;1101;-85
2021/12/09 04:32:56;617936.00;2.06;1065.20;93035.00;0.31;161.55;;;;;10.70;1.00;;;;;;2262138;61;1105;-86
2021/12/09 04:35:23;665347.00;2.22;1147.20;92327.00;0.31;160.33;;;;;10.70;1.00;;;;;;2262466;61;1125;-86
2021/12/09 04:37:50;687679.00;2.29;1185.88;93821.00;0.31;162.91;;;;;10.30;1.00;;;;;;2262289;61;1677;-86
2021/12/09 04:40:19;716003.00;2.39;1235.00;75278.00;0.25;130.88;;;;;9.80;1.00;;;;;;2262272;61;1067;-86
2021/12/09 04:42:46;643876.00;2.15;1110.04;89113.00;0.30;154.78;;;;;9.40;1.00;;;;;;2262199;61;1340;-86
2021/12/09 04:45:13;117650432.00;392.17;65964712.00;120245.00;0.40;208.51;;;;;9.20;1.00;;;;;;2262109;61;1184;-86
2021/12/09 04:47:41;1264552.00;4.22;2207.38;337623.00;1.13;582.59;;;;;8.80;1.00;;;;;;2262323;61;1939;-86
2021/12/09 04:50:09;747770.00;2.49;1290.18;103488.00;0.34;179.59;;;;;9.10;1.00;;;;;;2262659;61;1241;-85
2021/12/09 04:52:37;723608.00;2.41;1248.20;88101.00;0.29;153.03;;;;;8.90;1.00;;;;;;2262548;61;1362;-86
2021/12/09 04:55:04;762330.00;2.54;1315.50;97880.00;0.33;169.91;;;;;8.70;1.00;;;;;;2262834;61;1141;-85
2021/12/09 04:57:33;859020.00;2.86;1484.26;91687.00;0.31;159.22;;;;;8.80;1.00;;;;;;2262546;61;1243;-86
2021/12/09 05:00:00;760919.00;2.54;1313.05;98045.00;0.33;170.20;;;;;9.00;1.00;;;;;;2261627;61;1184;-85
2021/12/09 05:02:35;893416.00;2.98;1544.56;101700.00;0.34;176.51;;;;;8.70;1.00;;;;;;2262393;61;1289;-86
2021/12/09 05:05:02;981185.00;3.27;1699.18;121879.00;0.41;211.32;;;;;8.70;1.00;;;;;;2262908;61;1332;-85
2021/12/09 05:07:29;797456.00;2.66;1376.69;99846.00;0.33;173.31;;;;;9.00;1.00;;;;;;2262667;61;1931;-85
2021/12/09 05:09:57;674378.00;2.25;1162.83;103186.00;0.34;179.07;;;;;8.90;1.00;;;;;;2262600;61;1070;-86
2021/12/09 05:12:23;744568.00;2.48;1284.61;107399.00;0.36;186.34;;;;;8.70;1.00;;;;;;2262418;61;1532;-85
2021/12/09 05:14:52;734304.00;2.45;1266.78;0.00;0.00;0.62;;;;;8.30;1.00;;;;;;2262475;61;1065;-85
2021/12/09 05:17:19;637082.00;2.12;1098.29;0.00;0.00;0.62;;;;;8.10;1.00;;;;;;2262303;61;1149;-85
2021/12/09 05:19:48;900817.00;3.00;1557.55;0.00;0.00;0.62;;;;;8.30;1.00;;;;;;2262545;61;1118;-85
2021/12/09 05:22:15;598708.00;2.00;1031.99;0.00;0.00;0.62;;;;;8.40;1.00;;;;;;2262409;61;1304;-86
2021/12/09 05:24:43;560732.00;1.87;966.46;0.00;0.00;0.62;;;;;8.80;1.00;;;;;;2267449;61;1116;-86
2021/12/09 05:27:13;618664.00;2.06;1066.46;0.00;0.00;0.62;;;;;8.50;1.00;;;;;;2263540;61;1164;-86
2021/12/09 05:29:42;671935.00;2.24;1158.60;0.00;0.00;0.62;;;;;8.40;1.00;;;;;;2263131;61;1944;-86
2021/12/09 05:32:12;669496.00;2.23;1154.38;0.00;0.00;0.62;;;;;8.30;1.00;;;;;;2263002;61;1288;-86
2021/12/09 05:34:42;662119.00;2.21;1141.61;0.00;0.00;0.62;;;;;8.60;1.00;;;;;;2262796;61;1368;-86
2021/12/09 05:37:13;571954.00;1.91;985.82;0.00;0.00;0.62;;;;;8.70;1.00;;;;;;2262431;61;1142;-86
2021/12/09 05:39:42;650436.00;2.17;1121.39;0.00;0.00;0.62;;;;;8.70;1.00;;;;;;2262293;61;1082;-86
2021/12/09 05:42:10;834682.00;2.78;1441.68;0.00;0.00;0.62;;;;;8.80;1.00;;;;;;2262280;61;1361;-86
2021/12/09 05:44:38;943945.00;3.15;1633.44;36790.00;0.12;64.33;;;;;8.60;1.00;;;;;;2263406;61;1083;-86
2021/12/09 05:47:06;498275.00;1.66;858.85;0.00;0.00;0.62;;;;;8.80;1.00;;;;;;2263272;61;1138;-86
2021/12/09 05:49:36;589576.00;1.97;1016.22;0.00;0.00;0.62;;;;;9.30;1.00;;;;;;2263284;61;1923;-86
2021/12/09 05:52:03;559962.00;1.87;965.13;0.00;0.00;0.62;;;;;9.70;1.00;;;;;;2263127;61;1357;-86
2021/12/09 05:54:30;605383.00;2.02;1043.52;0.00;0.00;0.62;;;;;10.00;1.00;;;;;;2263322;61;1083;-87
2021/12/09 05:56:58;555922.00;1.85;958.17;0.00;0.00;0.62;;;;;10.60;1.00;;;;;;2262701;61;1705;-86
2021/12/09 05:59:25;513399.00;1.71;884.90;0.00;0.00;0.62;;;;;10.70;1.00;;;;;;2262923;61;1155;-86
2021/12/09 06:01:53;722536.00;2.41;1246.34;0.00;0.00;0.62;;;;;10.40;1.00;;;;;;2262943;61;1373;-86
2021/12/09 06:04:21;658041.00;2.19;1134.55;0.00;0.00;0.62;;;;;9.60;1.00;;;;;;2263092;61;1106;-86
2021/12/09 06:06:50;730034.00;2.43;1259.36;0.00;0.00;0.62;;;;;8.90;1.00;;;;;;2263115;61;1149;-86
2021/12/09 06:09:17;724782.00;2.42;1250.24;0.00;0.00;0.62;;;;;8.80;1.00;;;;;;2263064;61;2022;-86
2021/12/09 06:11:47;844292.00;2.81;1458.48;39591.00;0.13;69.18;;;;;8.50;1.00;;;;;;2263220;61;1292;-85
2021/12/09 06:14:15;572321.00;1.91;986.45;0.00;0.00;0.62;;;;;8.50;1.00;;;;;;2262796;61;1092;-86
2021/12/09 06:16:42;737929.00;2.46;1273.08;0.00;0.00;0.62;;;;;8.30;1.00;;;;;;2263936;61;1054;-86
2021/12/09 06:19:09;557766.00;1.86;961.35;0.00;0.00;0.62;;;;;8.60;1.00;;;;;;2263751;61;1151;-86
2021/12/09 06:21:36;713142.00;2.38;1230.04;0.00;0.00;0.62;;;;;8.70;1.00;;;;;;2263141;61;1362;-85
2021/12/09 06:24:05;744191.00;2.48;1283.96;0.00;0.00;0.62;;;;;8.10;1.00;;;;;;2263098;61;1173;-85
2021/12/09 06:26:33;617343.00;2.06;1064.18;0.00;0.00;0.62;;;;;7.90;1.00;;;;;;2263590;61;1121;-86
2021/12/09 06:29:01;614384.00;2.05;1059.06;0.00;0.00;0.62;;;;;7.90;1.00;;;;;;2262178;61;2020;-88
2021/12/09 06:31:28;1299330.00;4.33;2270.88;64994.00;0.22;113.11;;;;;7.90;1.00;;;;;;2261928;61;1364;-88
2021/12/09 06:33:55;724907.00;2.42;1250.46;32583.00;0.11;57.05;;;;;8.20;1.00;;;;;;2261964;61;1909;-88
2021/12/09 06:36:22;825925.00;2.75;1426.37;0.00;0.00;0.62;;;;;8.20;1.00;;;;;;2262086;61;1127;-88
2021/12/09 06:38:49;715741.00;2.39;1234.55;0.00;0.00;0.62;;;;;8.10;1.00;;;;;;2261985;61;1172;-88
2021/12/09 06:41:18;602927.00;2.01;1039.27;0.00;0.00;0.62;;;;;8.30;1.00;;;;;;2262650;61;1372;-85
2021/12/09 06:43:45;629004.00;2.10;1084.33;0.00;0.00;0.62;;;;;8.60;1.00;;;;;;2262450;61;1362;-85
2021/12/09 06:46:13;613291.00;2.04;1057.17;0.00;0.00;0.62;;;;;9.00;1.00;;;;;;2262570;61;1157;-85
2021/12/09 06:48:41;584673.00;1.95;1007.76;0.00;0.00;0.62;;;;;9.40;1.00;;;;;;2262200;61;1921;-85
2021/12/09 06:51:09;739214.00;2.46;1275.31;0.00;0.00;0.62;;;;;9.40;1.00;;;;;;2262609;61;1364;-88
2021/12/09 06:53:39;585165.00;1.95;1008.61;0.00;0.00;0.62;;;;;9.40;1.00;;;;;;2261958;61;1151;-85
2021/12/09 06:56:07;652767.00;2.18;1125.42;0.00;0.00;0.62;;;;;9.60;1.00;;;;;;2262277;61;1133;-86
2021/12/09 06:58:35;714560.00;2.38;1232.50;0.00;0.00;0.62;;;;;9.70;1.00;;;;;;2262737;61;1125;-86
2021/12/09 07:01:05;749182.00;2.50;1292.64;0.00;0.00;0.62;;;;;10.10;1.00;;;;;;2262249;61;1222;-85
2021/12/09 07:03:33;948641.00;3.16;1641.71;96320.00;0.32;167.22;;;;;10.00;1.00;;;;;;2262845;61;1134;-86
2021/12/09 07:06:06;809210.00;2.70;1397.19;93564.00;0.31;162.46;;;;;10.20;1.00;;;;;;2262936;61;1259;-86
2021/12/09 07:08:35;670417.00;2.23;1155.98;94880.00;0.32;164.73;;;;;10.10;1.00;;;;;;2263252;61;2001;-85
2021/12/09 07:11:02;1366281.00;4.55;2393.93;184012.00;0.61;318.40;;;;;10.20;1.00;;;;;;2263545;61;1274;-85
2021/12/09 07:13:30;1045965.00;3.49;1814.05;88293.00;0.29;153.36;;;;;9.90;1.00;;;;;;2263267;61;2341;-85
2021/12/09 07:15:59;765812.00;2.55;1321.56;98017.00;0.33;170.15;;;;;9.90;1.00;;;;;;2263154;61;1126;-86
2021/12/09 07:18:26;933494.00;3.11;1615.02;133579.00;0.45;231.50;;;;;9.70;1.00;;;;;;2262860;61;1077;-85
2021/12/09 07:20:53;781570.00;2.61;1349.00;100225.00;0.33;173.96;;;;;9.70;1.00;;;;;;2262794;61;1279;-85
2021/12/09 07:23:20;799421.00;2.66;1380.11;105065.00;0.35;182.31;;;;;9.90;1.00;;;;;;2262733;61;1116;-86
2021/12/09 07:25:48;841613.00;2.81;1453.80;86020.00;0.29;149.43;;;;;10.10;1.00;;;;;;2263024;61;1158;-86
2021/12/09 07:28:15;748369.00;2.49;1291.22;87625.00;0.29;152.21;;;;;10.40;1.00;;;;;;2263157;61;2018;-85
2021/12/09 07:30:43;757121.00;2.52;1306.44;91633.00;0.31;159.13;;;;;10.70;1.00;;;;;;2262970;61;1530;-86
2021/12/09 07:33:11;778271.00;2.59;1343.25;100873.00;0.34;175.08;;;;;10.10;1.00;;;;;;2263175;61;1089;-85
2021/12/09 07:35:39;822917.00;2.74;1421.12;105092.00;0.35;182.36;;;;;9.70;1.00;;;;;;2263011;61;1217;-86
2021/12/09 07:38:06;820863.00;2.74;1417.53;99699.00;0.33;173.05;;;;;9.50;1.00;;;;;;2262953;61;1166;-85
2021/12/09 07:40:34;758019.00;2.53;1308.00;86662.00;0.29;150.54;;;;;9.10;1.00;;;;;;2262638;61;1665;-85
2021/12/09 07:43:01;873548.00;2.91;1509.71;155690.00;0.52;269.61;;;;;9.00;1.00;;;;;;2263171;61;1086;-85
2021/12/09 07:45:28;789749.00;2.63;1363.25;95629.00;0.32;166.03;;;;;9.00;1.00;;;;;;2262130;61;1204;-85
2021/12/09 07:47:55;949883.00;3.17;1643.90;79515.00;0.27;138.20;;;;;8.90;1.00;;;;;;2262083;61;1148;-86
2021/12/09 07:50:29;833225.00;2.78;1439.13;114432.00;0.38;198.48;;;;;9.00;1.00;;;;;;2266390;61;2050;-87
2021/12/09 07:52:56;935735.00;3.12;1618.97;108784.00;0.36;188.73;;;;;9.10;1.00;;;;;;2260750;61;1501;-86
2021/12/09 07:55:25;714725.00;2.38;1232.78;97405.00;0.32;169.09;;;;;9.20;1.00;;;;;;2257568;61;1165;-85
2021/12/09 07:57:52;826758.00;2.76;1427.83;92787.00;0.31;161.12;;;;;9.30;1.00;;;;;;2257672;61;956;-85
2021/12/09 08:00:22;928749.00;3.10;1606.67;169533.00;0.57;293.46;;;;;9.20;1.00;;;;;;2267246;61;1056;-88
2021/12/09 08:02:51;916670.00;3.06;1585.42;109284.00;0.36;189.59;;;;;8.70;1.00;;;;;;2265637;61;1403;-86
2021/12/09 08:12:50;533940.00;1.78;920.28;99399.00;0.33;172.53;;;;;8.40;1.00;;;;;;2274898;61;1327;-88
2021/12/09 08:15:17;738844.00;2.46;1274.67;149056.00;0.50;258.18;;;;;8.00;1.00;;;;;;2260794;61;973;-88
2021/12/09 09:43:27;0.00;0.00;0.62;0.00;0.00;0.62;;;;;9.50;1.00;;;;;;2275774;61;923;-87
2021/12/09 13:20:33;236272.00;0.79;408.34;56055.00;0.19;97.66;;;;;9.30;1.00;;;;;;2279210;61;903;-87
2021/12/09 13:35:53;390981.00;1.30;674.30;45492.00;0.15;79.39;;;;;9.50;1.00;;;;;;2274050;61;1274;-88
2021/12/09 13:54:18;66516.00;0.22;115.74;0.00;0.00;0.62;;;;;9.40;1.00;;;;;;2498624;40;3503;31
2021/12/09 14:02:19;37577.00;0.13;65.70;0.00;0.00;0.62;;;;;8.60;1.00;;;;;;2532451;55;1879;31
2021/12/09 14:09:45;117913792.00;393.05;66409072.00;0.00;0.00;0.62;;;;;8.70;1.00;;;;;;2498908;40;3438;31
2021/12/09 15:39:50;228468.00;0.76;394.91;26598.00;0.09;46.69;;;;;9.90;1.00;;;;;;2462786;55;3809;31
2021/12/09 15:47:25;118432.00;0.39;205.38;0.00;0.00;0.62;;;;;10.20;1.00;;;;;;2493874;40;3504;31
2021/12/09 18:04:00;260576.00;0.87;450.14;51124.00;0.17;89.13;;;;;8.80;1.00;;;;;;2279809;61;893;-91
2021/12/09 18:41:49;580491.00;1.93;1000.55;108561.00;0.36;188.35;;;;;8.70;1.00;;;;;;2275565;61;939;-86
2021/12/09 19:12:26;278499.00;0.93;480.96;0.00;0.00;0.62;;;;;8.90;1.00;;;;;;2279105;61;897;-88
2021/12/09 19:34:47;177174.00;0.59;306.62;0.00;0.00;0.62;;;;;8.20;1.00;;;;;;2274933;61;892;-89
2021/12/09 19:50:19;42119.00;0.14;73.55;0.00;0.00;0.62;;;;;7.80;1.00;;;;;;2282780;61;1940;-90
2021/12/09 21:10:14;465998.00;1.55;803.30;0.00;0.00;0.62;;;;;8.70;1.00;;;;;;2274990;61;1952;-89
2021/12/09 21:12:43;498146.00;1.66;858.63;40038.00;0.13;69.95;;;;;8.90;1.00;;;;;;2266056;61;848;-86
2021/12/09 21:42:23;419750.00;1.40;723.76;26309.00;0.09;46.19;;;;;8.40;1.00;;;;;;2267728;61;914;-87
2021/12/09 21:52:20;170886.00;0.57;295.79;0.00;0.00;0.62;;;;;8.50;1.00;;;;;;2275418;61;892;-87
2021/12/09 21:54:47;228300.00;0.76;394.62;0.00;0.00;0.62;;;;;8.20;1.00;;;;;;2265318;61;893;-87
2021/12/09 22:54:19;267877.00;0.89;462.69;14866.00;0.05;26.38;;;;;8.90;1.00;;;;;;2271318;61;917;-88
